Time;durP1;ratioP1;P1;durP2;ratioP2;P2;SDS_P1;SDS_P2;PMS_P1;PMS_P2;Temp;Humidity;BMP_temperature;BMP_pressure;BME280_temperature;BME280_humidity;BME280_pressure;Samples;Min_cycle;Max_cycle;Signal;HPM_P1;HPM_P2
2022/11/09 00:02:13;;;;;;;;;;;20.10;70.50;;;;;;5067619;28;1240;-70
2022/11/09 00:04:38;;;;;;;;;;;20.10;70.40;;;;;;5062168;28;788;-70
2022/11/09 00:07:03;;;;;;;;;;;20.10;70.50;;;;;;5062616;28;1344;-69
2022/11/09 00:09:29;;;;;;;;;;;20.10;70.50;;;;;;5050820;28;945;-70
2022/11/09 00:11:54;;;;;;;;;;;20.10;70.50;;;;;;5065877;28;785;-70
2022/11/09 00:14:20;;;;;;;;;;;20.10;70.50;;;;;;5063950;28;851;-70
2022/11/09 00:16:45;;;;;;;;;;;20.10;70.50;;;;;;5064069;28;1275;-70
2022/11/09 00:19:12;;;;;;;;;;;20.10;70.50;;;;;;5062703;28;1971;-69
2022/11/09 00:21:38;;;;;;;;;;;20.10;70.50;;;;;;5062502;28;940;-70
2022/11/09 00:24:03;;;;;;;;;;;20.10;70.50;;;;;;5052032;28;1002;-69
2022/11/09 00:26:29;;;;;;;;;;;20.10;70.50;;;;;;5051331;28;1273;-70
2022/11/09 00:28:54;;;;;;;;;;;20.10;70.50;;;;;;5067756;28;1032;-70
2022/11/09 00:31:20;;;;;;;;;;;20.10;70.50;;;;;;5064378;28;1422;-71
2022/11/09 00:33:46;;;;;;;;;;;20.10;70.50;;;;;;5068264;28;918;-70
2022/11/09 00:36:12;;;;;;;;;;;20.10;70.50;;;;;;5052394;28;830;-71
2022/11/09 00:38:39;;;;;;;;;;;20.10;70.50;;;;;;5064198;28;1906;-70
2022/11/09 00:41:05;;;;;;;;;;;20.10;70.50;;;;;;5045747;28;843;-70
2022/11/09 00:43:30;;;;;;;;;;;20.10;70.50;;;;;;5035514;28;1179;-70
2022/11/09 00:45:56;;;;;;;;;;;20.10;70.50;;;;;;5046500;28;859;-70
2022/11/09 00:48:21;;;;;;;;;;;20.10;70.50;;;;;;5063707;28;1354;-70
2022/11/09 00:50:53;;;;;;;;;;;20.10;70.50;;;;;;5045554;28;1018;-70
2022/11/09 00:53:19;;;;;;;;;;;20.10;70.50;;;;;;5048493;28;919;-70
2022/11/09 00:55:54;;;;;;;;;;;20.10;70.50;;;;;;5052692;28;1089;-70
2022/11/09 00:58:19;;;;;;;;;;;20.10;70.50;;;;;;5042575;28;1961;-70
2022/11/09 01:00:45;;;;;;;;;;;20.10;70.60;;;;;;5046041;28;1021;-70
2022/11/09 01:03:10;;;;;;;;;;;20.10;70.60;;;;;;5063683;28;1273;-70
2022/11/09 01:05:38;;;;;;;;;;;20.10;70.60;;;;;;5062875;28;1046;-70
2022/11/09 01:08:04;;;;;;;;;;;20.10;70.60;;;;;;5050953;28;1277;-70
2022/11/09 01:10:30;;;;;;;;;;;20.10;70.60;;;;;;5064884;28;1959;-70
2022/11/09 01:12:55;;;;;;;;;;;20.10;70.60;;;;;;5050374;28;839;-69
2022/11/09 01:15:21;;;;;;;;;;;20.10;70.50;;;;;;5063010;28;875;-70
2022/11/09 01:17:46;;;;;;;;;;;20.10;70.60;;;;;;5046086;28;1930;-70
2022/11/09 01:20:12;;;;;;;;;;;20.10;70.70;;;;;;5063338;28;833;-68
2022/11/09 01:22:38;;;;;;;;;;;20.10;70.60;;;;;;5067126;28;899;-70
2022/11/09 01:25:03;;;;;;;;;;;20.10;70.60;;;;;;5060976;28;876;-70
2022/11/09 01:27:29;;;;;;;;;;;20.10;70.60;;;;;;5060869;28;1235;-70
2022/11/09 01:29:54;;;;;;;;;;;20.10;70.60;;;;;;5064112;28;833;-70
2022/11/09 01:32:20;;;;;;;;;;;20.10;70.60;;;;;;5063582;28;974;-70
2022/11/09 01:34:45;;;;;;;;;;;20.10;70.60;;;;;;5059018;28;864;-70
2022/11/09 01:37:10;;;;;;;;;;;20.10;70.60;;;;;;5059722;28;1971;-70
2022/11/09 01:39:36;;;;;;;;;;;20.10;70.60;;;;;;5063176;28;834;-70
2022/11/09 01:42:01;;;;;;;;;;;20.10;70.60;;;;;;5063556;28;795;-70
2022/11/09 01:44:30;;;;;;;;;;;20.10;70.60;;;;;;5063427;28;1005;-69
2022/11/09 01:46:57;;;;;;;;;;;20.10;71.40;;;;;;5062740;28;1197;-70
2022/11/09 01:49:39;;;;;;;;;;;20.10;70.70;;;;;;5050813;28;1026;-70
2022/11/09 01:52:12;;;;;;;;;;;20.10;70.60;;;;;;5059480;28;829;-70
2022/11/09 01:54:42;;;;;;;;;;;20.10;70.70;;;;;;5061222;28;938;-69
2022/11/09 01:57:12;;;;;;;;;;;20.10;70.70;;;;;;5044052;28;1913;-70
2022/11/09 01:59:39;;;;;;;;;;;20.10;70.70;;;;;;5060764;28;947;-70
2022/11/09 02:02:05;;;;;;;;;;;20.10;70.70;;;;;;5063138;28;1072;-70
2022/11/09 02:04:33;;;;;;;;;;;20.10;70.70;;;;;;5049143;28;1072;-70
2022/11/09 02:06:58;;;;;;;;;;;20.10;70.70;;;;;;5042241;28;1291;-70
2022/11/09 02:09:28;;;;;;;;;;;20.10;70.70;;;;;;5064818;28;925;-70
2022/11/09 02:11:54;;;;;;;;;;;20.10;70.70;;;;;;5045916;28;1042;-70
2022/11/09 02:14:19;;;;;;;;;;;20.10;70.70;;;;;;5062447;28;997;-70
2022/11/09 02:16:45;;;;;;;;;;;20.10;70.70;;;;;;5048159;28;1232;-70
2022/11/09 02:19:10;;;;;;;;;;;20.10;70.70;;;;;;5062042;28;1910;-70
2022/11/09 02:21:36;;;;;;;;;;;20.10;70.70;;;;;;5063664;28;1002;-70
2022/11/09 02:24:01;;;;;;;;;;;20.10;70.70;;;;;;5062562;28;1112;-70
2022/11/09 02:26:29;;;;;;;;;;;20.10;70.70;;;;;;5041517;28;1371;-70
2022/11/09 02:28:55;;;;;;;;;;;20.10;70.70;;;;;;5043434;28;1165;-70
2022/11/09 02:31:21;;;;;;;;;;;20.10;70.70;;;;;;5043229;28;1378;-70
2022/11/09 02:33:50;;;;;;;;;;;20.00;70.60;;;;;;5046231;28;803;-70
2022/11/09 02:36:15;;;;;;;;;;;20.10;70.70;;;;;;5064194;28;1095;-70
2022/11/09 02:38:40;;;;;;;;;;;20.10;70.70;;;;;;5062516;28;1910;-70
2022/11/09 02:41:06;;;;;;;;;;;20.10;70.70;;;;;;5063457;28;857;-70
2022/11/09 02:43:31;;;;;;;;;;;20.10;70.70;;;;;;5045442;28;836;-70
2022/11/09 02:45:57;;;;;;;;;;;20.10;70.70;;;;;;5064587;28;924;-70
2022/11/09 02:48:22;;;;;;;;;;;20.10;70.70;;;;;;5062519;28;1252;-70
2022/11/09 02:50:48;;;;;;;;;;;20.10;70.70;;;;;;5065560;28;937;-70
2022/11/09 02:53:13;;;;;;;;;;;20.10;70.70;;;;;;5065970;28;891;-70
2022/11/09 02:55:38;;;;;;;;;;;20.00;70.70;;;;;;5064521;28;1017;-70
2022/11/09 02:58:04;;;;;;;;;;;20.10;70.70;;;;;;5065884;28;1996;-69
2022/11/09 03:00:29;;;;;;;;;;;20.00;70.70;;;;;;5066171;28;864;-70
2022/11/09 03:02:55;;;;;;;;;;;20.10;70.70;;;;;;5067984;28;1264;-70
2022/11/09 03:05:20;;;;;;;;;;;20.00;70.70;;;;;;5067735;28;859;-70
2022/11/09 03:07:46;;;;;;;;;;;20.00;70.70;;;;;;5067250;28;1240;-70
2022/11/09 03:10:11;;;;;;;;;;;20.00;70.70;;;;;;5066050;28;806;-70
2022/11/09 03:12:36;;;;;;;;;;;20.00;70.70;;;;;;5063028;28;771;-70
2022/11/09 03:15:03;;;;;;;;;;;20.10;70.80;;;;;;5065765;28;790;-70
2022/11/09 03:17:28;;;;;;;;;;;20.00;70.70;;;;;;5048889;28;1910;-70
2022/11/09 03:19:54;;;;;;;;;;;20.00;70.70;;;;;;5052575;28;1201;-69
2022/11/09 03:22:19;;;;;;;;;;;20.00;70.70;;;;;;5069110;28;1010;-70
2022/11/09 03:24:45;;;;;;;;;;;20.00;70.70;;;;;;5032736;28;1418;-70
2022/11/09 03:27:10;;;;;;;;;;;20.10;70.80;;;;;;5066543;28;1268;-70
2022/11/09 03:29:36;;;;;;;;;;;20.00;70.70;;;;;;5063843;28;934;-69
2022/11/09 03:32:01;;;;;;;;;;;20.00;70.70;;;;;;5063105;28;1399;-70
2022/11/09 03:34:26;;;;;;;;;;;20.00;70.70;;;;;;5063632;28;912;-70
2022/11/09 03:36:52;;;;;;;;;;;20.00;70.70;;;;;;5070541;28;1258;-70
2022/11/09 03:39:17;;;;;;;;;;;20.00;70.70;;;;;;5067134;28;2001;-70
2022/11/09 03:41:43;;;;;;;;;;;20.00;70.70;;;;;;5065218;28;964;-69
2022/11/09 03:44:08;;;;;;;;;;;20.00;70.70;;;;;;5064880;28;871;-69
2022/11/09 03:46:34;;;;;;;;;;;20.00;70.70;;;;;;5065211;28;1277;-70
2022/11/09 03:48:59;;;;;;;;;;;20.00;70.70;;;;;;5066424;28;941;-70
2022/11/09 03:51:24;;;;;;;;;;;20.00;70.70;;;;;;5052251;28;966;-70
2022/11/09 03:53:50;;;;;;;;;;;20.00;70.70;;;;;;5064533;28;805;-70
2022/11/09 03:56:16;;;;;;;;;;;20.00;71.50;;;;;;5067390;28;908;-70
2022/11/09 03:58:41;;;;;;;;;;;20.00;70.80;;;;;;5052928;28;1957;-69
2022/11/09 04:01:06;;;;;;;;;;;20.00;70.80;;;;;;5063700;28;839;-69
2022/11/09 04:03:32;;;;;;;;;;;20.00;70.70;;;;;;5064414;28;862;-68
2022/11/09 04:05:57;;;;;;;;;;;20.00;70.70;;;;;;5063868;28;860;-69
2022/11/09 04:08:23;;;;;;;;;;;20.00;70.70;;;;;;5066637;28;1316;-68
2022/11/09 04:10:48;;;;;;;;;;;20.00;70.80;;;;;;5052026;28;1271;-69
2022/11/09 04:13:14;;;;;;;;;;;20.00;70.70;;;;;;5066951;28;1368;-69
2022/11/09 04:15:39;;;;;;;;;;;20.00;70.70;;;;;;5064976;28;1604;-69
2022/11/09 04:18:05;;;;;;;;;;;20.00;70.70;;;;;;5066156;28;1914;-69
2022/11/09 04:20:30;;;;;;;;;;;20.00;70.80;;;;;;5065509;28;1363;-70
2022/11/09 04:22:56;;;;;;;;;;;20.00;70.80;;;;;;5053002;28;1343;-70
2022/11/09 04:25:22;;;;;;;;;;;20.00;70.80;;;;;;5053487;28;1624;-70
2022/11/09 04:27:47;;;;;;;;;;;20.00;70.80;;;;;;5068452;28;1421;-70
2022/11/09 04:30:12;;;;;;;;;;;20.00;70.80;;;;;;5053370;28;1340;-69
2022/11/09 04:32:38;;;;;;;;;;;20.00;70.80;;;;;;5066845;28;1400;-70
2022/11/09 04:35:03;;;;;;;;;;;20.00;70.80;;;;;;5066193;28;1591;-70
2022/11/09 04:37:29;;;;;;;;;;;20.00;70.80;;;;;;5065575;28;1910;-69
2022/11/09 04:39:54;;;;;;;;;;;20.00;70.80;;;;;;5048501;28;907;-70
2022/11/09 04:42:20;;;;;;;;;;;20.00;70.80;;;;;;5065492;28;807;-69
2022/11/09 04:44:45;;;;;;;;;;;20.00;70.80;;;;;;5066611;28;859;-68
2022/11/09 04:47:10;;;;;;;;;;;20.00;70.80;;;;;;5064548;28;1346;-70
2022/11/09 04:49:36;;;;;;;;;;;20.00;70.80;;;;;;5065445;28;973;-68
2022/11/09 04:52:01;;;;;;;;;;;20.00;70.80;;;;;;5058279;28;816;-68
2022/11/09 04:54:27;;;;;;;;;;;20.00;70.80;;;;;;5061940;28;1002;-69
2022/11/09 04:56:52;;;;;;;;;;;20.00;70.80;;;;;;5062457;28;1343;-69
2022/11/09 04:59:18;;;;;;;;;;;20.00;70.80;;;;;;5062768;28;1997;-69
2022/11/09 05:01:43;;;;;;;;;;;20.00;70.80;;;;;;5062940;28;1363;-70
2022/11/09 05:04:08;;;;;;;;;;;20.00;70.80;;;;;;5063938;28;818;-68
2022/11/09 05:06:34;;;;;;;;;;;20.00;70.80;;;;;;5062881;28;1256;-69
2022/11/09 05:09:01;;;;;;;;;;;20.00;70.80;;;;;;5064685;28;901;-70
2022/11/09 05:11:26;;;;;;;;;;;20.00;70.80;;;;;;5051646;28;773;-69
2022/11/09 05:13:52;;;;;;;;;;;20.00;70.80;;;;;;5049456;28;864;-69
2022/11/09 05:16:18;;;;;;;;;;;20.00;70.80;;;;;;5063907;28;812;-69
2022/11/09 05:18:43;;;;;;;;;;;20.00;70.70;;;;;;5061350;28;1972;-69
2022/11/09 05:21:09;;;;;;;;;;;20.10;70.70;;;;;;5052050;28;1029;-69
2022/11/09 05:26:18;;;;;;;;;;;20.10;70.50;;;;;;5063616;28;823;-67
2022/11/09 05:28:44;;;;;;;;;;;20.10;70.50;;;;;;5061792;28;1347;-70
2022/11/09 05:31:09;;;;;;;;;;;20.10;70.40;;;;;;5061698;28;1311;-70
2022/11/09 05:33:35;;;;;;;;;;;20.10;70.30;;;;;;5063891;28;1491;-70
2022/11/09 05:36:00;;;;;;;;;;;20.20;70.30;;;;;;5062062;28;903;-70
2022/11/09 05:38:26;;;;;;;;;;;20.20;70.20;;;;;;5048625;28;1906;-70
2022/11/09 05:40:51;;;;;;;;;;;20.20;70.10;;;;;;5061756;28;998;-70
2022/11/09 05:43:17;;;;;;;;;;;20.20;70.00;;;;;;5051166;28;779;-70
2022/11/09 05:45:42;;;;;;;;;;;20.20;70.00;;;;;;5062541;28;875;-69
2022/11/09 05:48:08;;;;;;;;;;;20.30;70.00;;;;;;5045908;28;1238;-67
2022/11/09 05:50:33;;;;;;;;;;;20.20;69.80;;;;;;5048272;28;1056;-68
2022/11/09 05:52:59;;;;;;;;;;;20.20;69.70;;;;;;5065653;28;888;-68
2022/11/09 05:55:25;;;;;;;;;;;20.30;69.80;;;;;;5043503;28;2426;-69
2022/11/09 05:57:50;;;;;;;;;;;20.30;69.70;;;;;;5045652;28;1906;-69
2022/11/09 06:00:16;;;;;;;;;;;20.30;69.70;;;;;;5059214;28;925;-70
2022/11/09 06:02:41;;;;;;;;;;;20.30;69.60;;;;;;5061722;28;1298;-72
2022/11/09 06:05:07;;;;;;;;;;;20.30;69.60;;;;;;5059874;28;1013;-72
2022/11/09 06:07:33;;;;;;;;;;;20.30;69.50;;;;;;5060357;28;1251;-71
2022/11/09 06:09:58;;;;;;;;;;;20.30;69.50;;;;;;5065945;28;855;-69
2022/11/09 06:12:23;;;;;;;;;;;20.30;69.50;;;;;;5065728;28;856;-69
2022/11/09 06:14:49;;;;;;;;;;;20.40;69.50;;;;;;5055584;28;791;-69
2022/11/09 06:17:14;;;;;;;;;;;20.40;69.40;;;;;;5056227;28;1902;-69
2022/11/09 06:19:40;;;;;;;;;;;20.40;69.40;;;;;;5046911;28;1354;-70
2022/11/09 06:22:05;;;;;;;;;;;20.40;69.40;;;;;;5065291;28;812;-69
2022/11/09 06:24:31;;;;;;;;;;;20.40;69.40;;;;;;5067992;28;879;-68
2022/11/09 06:26:56;;;;;;;;;;;20.40;69.40;;;;;;5067934;28;1335;-71
2022/11/09 06:29:22;;;;;;;;;;;20.40;69.40;;;;;;5067106;28;1459;-68
2022/11/09 06:31:47;;;;;;;;;;;20.40;69.30;;;;;;5058755;28;843;-68
2022/11/09 06:34:13;;;;;;;;;;;20.40;69.30;;;;;;5071368;28;788;-68
2022/11/09 06:36:39;;;;;;;;;;;20.40;69.30;;;;;;5070422;28;1197;-69
2022/11/09 06:39:07;;;;;;;;;;;20.40;69.30;;;;;;5073944;28;1987;-69
2022/11/09 06:41:32;;;;;;;;;;;20.40;69.30;;;;;;5068051;28;796;-69
2022/11/09 06:43:57;;;;;;;;;;;20.40;69.30;;;;;;5072607;28;841;-68
2022/11/09 06:46:23;;;;;;;;;;;20.40;69.30;;;;;;5069141;28;820;-69
2022/11/09 06:48:48;;;;;;;;;;;20.40;69.30;;;;;;5071351;28;1152;-69
2022/11/09 06:51:14;;;;;;;;;;;20.40;69.30;;;;;;5068592;28;904;-69
2022/11/09 06:53:40;;;;;;;;;;;20.40;69.30;;;;;;5070201;28;930;-69
2022/11/09 06:56:05;;;;;;;;;;;20.40;69.30;;;;;;5046370;28;1397;-71
2022/11/09 06:58:31;;;;;;;;;;;20.40;69.30;;;;;;5065913;28;1969;-71
2022/11/09 07:00:57;;;;;;;;;;;20.40;69.30;;;;;;5051489;28;1088;-71
2022/11/09 07:03:23;;;;;;;;;;;20.40;69.30;;;;;;5066242;28;1351;-70
2022/11/09 07:05:49;;;;;;;;;;;20.40;69.30;;;;;;5053501;28;850;-70
2022/11/09 07:08:15;;;;;;;;;;;20.40;69.30;;;;;;5068461;28;1215;-70
2022/11/09 07:10:40;;;;;;;;;;;20.40;69.30;;;;;;5068324;28;828;-68
2022/11/09 07:13:06;;;;;;;;;;;20.40;69.40;;;;;;5052997;28;760;-70
2022/11/09 07:15:31;;;;;;;;;;;20.40;70.10;;;;;;5050101;28;915;-69
2022/11/09 07:17:57;;;;;;;;;;;20.40;69.40;;;;;;5067934;28;1983;-68
2022/11/09 07:20:23;;;;;;;;;;;20.40;69.40;;;;;;5051284;28;1293;-67
2022/11/09 07:22:48;;;;;;;;;;;20.40;69.40;;;;;;5067270;28;824;-69
2022/11/09 07:25:14;;;;;;;;;;;20.40;69.50;;;;;;5067531;28;806;-69
2022/11/09 07:27:39;;;;;;;;;;;20.40;69.50;;;;;;5066290;28;1331;-68
2022/11/09 07:30:06;;;;;;;;;;;20.40;69.50;;;;;;5053573;28;915;-68
2022/11/09 07:32:32;;;;;;;;;;;20.40;69.50;;;;;;5072557;28;1108;-66
2022/11/09 07:34:57;;;;;;;;;;;20.40;69.50;;;;;;5066876;28;858;-65
2022/11/09 07:37:23;;;;;;;;;;;20.30;69.50;;;;;;5065463;28;1898;-66
2022/11/09 07:39:48;;;;;;;;;;;20.30;69.50;;;;;;5066976;28;890;-67
2022/11/09 07:42:14;;;;;;;;;;;20.30;69.50;;;;;;5065685;28;832;-66
2022/11/09 07:44:39;;;;;;;;;;;20.40;70.30;;;;;;5066119;28;831;-66
2022/11/09 07:47:05;;;;;;;;;;;20.30;69.50;;;;;;5065860;28;1217;-68
2022/11/09 07:49:31;;;;;;;;;;;20.30;69.60;;;;;;5065224;28;839;-68
2022/11/09 07:51:56;;;;;;;;;;;20.30;69.60;;;;;;5066022;28;896;-68
2022/11/09 07:54:22;;;;;;;;;;;20.30;69.60;;;;;;5051299;28;1145;-68
2022/11/09 07:56:47;;;;;;;;;;;20.30;69.60;;;;;;5053035;28;1250;-68
2022/11/09 07:59:13;;;;;;;;;;;20.30;69.60;;;;;;5066609;28;2029;-68
2022/11/09 08:01:38;;;;;;;;;;;20.30;69.60;;;;;;5065554;28;1372;-68
2022/11/09 08:04:05;;;;;;;;;;;20.30;69.60;;;;;;5064740;28;1308;-68
2022/11/09 08:06:30;;;;;;;;;;;20.30;69.70;;;;;;5061055;28;840;-68
2022/11/09 08:08:56;;;;;;;;;;;20.30;69.70;;;;;;5064852;28;896;-68
2022/11/09 08:11:22;;;;;;;;;;;20.30;69.70;;;;;;5063991;28;838;-69
2022/11/09 08:13:48;;;;;;;;;;;20.30;69.70;;;;;;5050915;28;819;-69
2022/11/09 08:16:13;;;;;;;;;;;20.30;69.80;;;;;;5045377;28;873;-67
2022/11/09 08:18:39;;;;;;;;;;;20.30;69.80;;;;;;5061579;28;1918;-67
2022/11/09 08:21:04;;;;;;;;;;;20.30;69.80;;;;;;5062806;28;984;-68
2022/11/09 08:23:30;;;;;;;;;;;20.30;69.80;;;;;;5063236;28;1223;-68
2022/11/09 08:25:55;;;;;;;;;;;20.30;69.80;;;;;;5061886;28;851;-68
2022/11/09 08:28:21;;;;;;;;;;;20.30;69.80;;;;;;5069877;28;1291;-69
2022/11/09 08:30:53;;;;;;;;;;;20.30;69.80;;;;;;5066069;28;791;-68
2022/11/09 08:33:18;;;;;;;;;;;20.30;69.80;;;;;;5049203;28;1466;-69
2022/11/09 08:35:44;;;;;;;;;;;20.20;69.80;;;;;;5066139;28;879;-68
2022/11/09 08:38:09;;;;;;;;;;;20.20;69.80;;;;;;5063701;28;1929;-69
2022/11/09 08:40:35;;;;;;;;;;;20.20;69.80;;;;;;5064220;28;1262;-67
2022/11/09 08:43:01;;;;;;;;;;;20.20;69.90;;;;;;5065046;28;840;-68
2022/11/09 08:45:27;;;;;;;;;;;20.20;70.00;;;;;;5065659;28;792;-69
2022/11/09 08:47:58;;;;;;;;;;;20.20;69.90;;;;;;5063358;28;1233;-70
2022/11/09 08:50:24;;;;;;;;;;;20.20;69.90;;;;;;5051196;28;900;-68
2022/11/09 08:52:49;;;;;;;;;;;20.20;70.00;;;;;;5048183;28;1379;-68
2022/11/09 08:55:15;;;;;;;;;;;20.20;69.90;;;;;;5064045;28;781;-68
2022/11/09 08:57:40;;;;;;;;;;;20.20;69.90;;;;;;5067568;28;1898;-69
2022/11/09 09:00:06;;;;;;;;;;;20.20;69.90;;;;;;5065855;28;899;-68
2022/11/09 09:02:31;;;;;;;;;;;20.20;69.90;;;;;;5047095;28;1260;-67
2022/11/09 09:04:57;;;;;;;;;;;20.20;69.90;;;;;;5068468;28;879;-67
2022/11/09 09:07:22;;;;;;;;;;;20.20;69.90;;;;;;5059289;28;1295;-68
2022/11/09 09:09:48;;;;;;;;;;;20.20;69.80;;;;;;5062900;28;1034;-68
2022/11/09 09:12:13;;;;;;;;;;;20.20;69.80;;;;;;5063551;28;957;-68
2022/11/09 09:14:39;;;;;;;;;;;20.30;69.80;;;;;;5064348;28;922;-68
2022/11/09 09:17:04;;;;;;;;;;;20.30;69.80;;;;;;5065991;28;1255;-68
2022/11/09 09:19:29;;;;;;;;;;;20.30;69.80;;;;;;5062413;28;1910;-68
2022/11/09 09:21:55;;;;;;;;;;;20.30;69.80;;;;;;5062598;28;838;-68
2022/11/09 09:24:21;;;;;;;;;;;20.30;69.70;;;;;;5064002;28;897;-69
2022/11/09 09:26:46;;;;;;;;;;;20.30;69.70;;;;;;5064288;28;1251;-69
2022/11/09 09:29:12;;;;;;;;;;;20.30;69.70;;;;;;5063376;28;809;-68
2022/11/09 09:31:37;;;;;;;;;;;20.30;69.70;;;;;;5066344;28;1658;-67
2022/11/09 09:34:03;;;;;;;;;;;20.30;69.70;;;;;;5061805;28;1009;-67
2022/11/09 09:36:28;;;;;;;;;;;20.30;69.70;;;;;;5061667;28;942;-67
2022/11/09 09:38:54;;;;;;;;;;;20.30;69.70;;;;;;5049655;28;1898;-67
2022/11/09 09:41:38;;;;;;;;;;;20.30;69.70;;;;;;5062727;28;805;-68
2022/11/09 09:44:12;;;;;;;;;;;20.30;69.70;;;;;;5059980;28;871;-68
2022/11/09 09:46:45;;;;;;;;;;;20.30;69.70;;;;;;5060993;28;1228;-67
2022/11/09 09:49:15;;;;;;;;;;;20.30;69.80;;;;;;5048359;28;1058;-67
2022/11/09 09:51:48;;;;;;;;;;;20.30;69.70;;;;;;5061476;28;1129;-67
2022/11/09 09:54:15;;;;;;;;;;;20.30;70.50;;;;;;5045265;28;1034;-67
2022/11/09 09:56:42;;;;;;;;;;;20.30;69.80;;;;;;5060939;28;1256;-67
2022/11/09 09:59:13;;;;;;;;;;;20.30;69.80;;;;;;5049515;28;1898;-67
2022/11/09 10:01:39;;;;;;;;;;;20.30;69.80;;;;;;5067362;28;1636;-68
2022/11/09 10:04:28;;;;;;;;;;;20.30;69.80;;;;;;5027407;28;978;-69
2022/11/09 10:07:13;;;;;;;;;;;20.30;69.80;;;;;;5052927;28;1373;-69
2022/11/09 10:09:44;;;;;;;;;;;20.30;69.90;;;;;;5043865;28;800;-68
2022/11/09 10:12:30;;;;;;;;;;;20.20;69.80;;;;;;5065317;28;852;-68
2022/11/09 10:14:55;;;;;;;;;;;20.20;69.80;;;;;;5062338;28;883;-68
2022/11/09 10:17:21;;;;;;;;;;;20.20;69.90;;;;;;5066800;28;1286;-68
2022/11/09 10:20:03;;;;;;;;;;;20.20;69.90;;;;;;5062244;28;1905;-69
2022/11/09 10:22:41;;;;;;;;;;;20.20;69.90;;;;;;5043092;28;1306;-68
2022/11/09 10:25:13;;;;;;;;;;;20.20;69.90;;;;;;5062532;28;832;-69
2022/11/09 10:27:41;;;;;;;;;;;20.20;69.90;;;;;;5064153;28;1285;-69
2022/11/09 10:30:16;;;;;;;;;;;20.20;70.00;;;;;;5048091;28;931;-69
2022/11/09 10:32:46;;;;;;;;;;;20.20;70.00;;;;;;5044893;28;1323;-69
2022/11/09 10:35:11;;;;;;;;;;;20.20;70.00;;;;;;5042971;28;813;-69
2022/11/09 10:37:40;;;;;;;;;;;20.20;70.00;;;;;;5061807;28;1910;-69
2022/11/09 10:40:09;;;;;;;;;;;20.20;70.00;;;;;;5062543;28;1089;-69
2022/11/09 10:42:34;;;;;;;;;;;20.20;70.00;;;;;;5064015;28;845;-69
2022/11/09 10:45:06;;;;;;;;;;;20.20;70.00;;;;;;5063027;28;784;-69
2022/11/09 10:47:32;;;;;;;;;;;20.20;70.00;;;;;;5045656;28;1283;-71
2022/11/09 10:50:05;;;;;;;;;;;20.20;70.10;;;;;;5045223;28;1347;-70
2022/11/09 10:52:31;;;;;;;;;;;20.20;70.00;;;;;;5064378;28;780;-70
2022/11/09 10:55:16;;;;;;;;;;;20.20;70.10;;;;;;5062536;28;775;-70
2022/11/09 10:57:58;;;;;;;;;;;20.20;70.10;;;;;;5060009;28;1894;-70
2022/11/09 11:00:24;;;;;;;;;;;20.20;70.10;;;;;;5049570;28;888;-70
2022/11/09 11:02:50;;;;;;;;;;;20.20;70.10;;;;;;5062449;28;1245;-70
2022/11/09 11:05:16;;;;;;;;;;;20.10;70.10;;;;;;5067066;28;818;-70
2022/11/09 11:07:41;;;;;;;;;;;20.10;70.10;;;;;;5056070;28;1264;-70
2022/11/09 11:10:16;;;;;;;;;;;20.10;70.10;;;;;;5043586;28;794;-69
2022/11/09 11:12:45;;;;;;;;;;;20.10;70.10;;;;;;5066067;28;994;-70
2022/11/09 11:15:21;;;;;;;;;;;20.10;70.20;;;;;;5053628;28;1266;-67
2022/11/09 11:17:46;;;;;;;;;;;20.10;68.70;;;;;;5063418;28;1969;-67
2022/11/09 11:20:25;;;;;;;;;;;20.10;67.80;;;;;;5065681;28;1275;-66
2022/11/09 11:22:50;;;;;;;;;;;20.10;65.90;;;;;;5053532;28;1366;-66
2022/11/09 11:25:16;;;;;;;;;;;20.10;64.60;;;;;;5052225;28;1246;-68
2022/11/09 11:27:43;;;;;;;;;;;20.00;64.10;;;;;;5052315;28;1365;-66
2022/11/09 11:30:15;;;;;;;;;;;20.00;63.60;;;;;;5063852;28;812;-66
2022/11/09 11:32:41;;;;;;;;;;;20.00;63.40;;;;;;5049308;28;1227;-66
2022/11/09 11:35:15;;;;;;;;;;;20.00;63.30;;;;;;5065264;28;1248;-66
2022/11/09 11:37:59;;;;;;;;;;;19.90;64.60;;;;;;5065394;28;1893;-66
2022/11/09 11:40:36;;;;;;;;;;;19.90;62.20;;;;;;5067037;28;1065;-66
2022/11/09 11:43:01;;;;;;;;;;;19.80;63.20;;;;;;5048951;28;913;-66
2022/11/09 11:45:31;;;;;;;;;;;19.80;64.10;;;;;;5064712;28;792;-66
2022/11/09 11:48:00;;;;;;;;;;;19.80;63.50;;;;;;5037675;28;1314;-66
2022/11/09 11:50:44;;;;;;;;;;;19.90;63.30;;;;;;5064091;28;821;-66
2022/11/09 11:53:12;;;;;;;;;;;19.90;63.70;;;;;;5066839;28;934;-66
2022/11/09 11:55:41;;;;;;;;;;;19.80;63.60;;;;;;5063274;28;887;-66
2022/11/09 11:58:18;;;;;;;;;;;19.80;63.30;;;;;;5063955;28;1897;-66
2022/11/09 12:00:51;;;;;;;;;;;19.80;63.00;;;;;;5067687;28;849;-66
2022/11/09 12:03:22;;;;;;;;;;;19.80;64.30;;;;;;5036367;28;1337;-67
2022/11/09 12:05:49;;;;;;;;;;;19.80;63.20;;;;;;5065140;28;891;-68
2022/11/09 12:08:17;;;;;;;;;;;19.80;62.60;;;;;;5059438;28;1268;-68
2022/11/09 12:10:52;;;;;;;;;;;19.70;64.10;;;;;;5067299;28;883;-67
2022/11/09 12:13:38;;;;;;;;;;;19.80;65.20;;;;;;5051906;28;805;-67
2022/11/09 12:16:23;;;;;;;;;;;19.80;65.60;;;;;;5052214;28;1264;-68
2022/11/09 12:19:10;;;;;;;;;;;19.80;66.10;;;;;;5064118;28;1914;-68
2022/11/09 12:21:50;;;;;;;;;;;19.80;67.40;;;;;;5062691;28;868;-68
2022/11/09 12:24:22;;;;;;;;;;;19.80;66.80;;;;;;5049944;28;873;-68
2022/11/09 12:27:01;;;;;;;;;;;19.80;67.20;;;;;;5057137;28;1256;-68
2022/11/09 12:29:36;;;;;;;;;;;19.90;67.40;;;;;;5048911;28;890;-68
2022/11/09 12:32:10;;;;;;;;;;;19.90;67.60;;;;;;5048544;28;1506;-68
2022/11/09 12:34:39;;;;;;;;;;;19.90;67.80;;;;;;5063484;28;886;-68
2022/11/09 12:37:12;;;;;;;;;;;19.90;68.10;;;;;;5050210;28;1276;-68
2022/11/09 12:39:49;;;;;;;;;;;19.90;68.20;;;;;;5050380;28;2130;-68
2022/11/09 12:42:17;;;;;;;;;;;19.90;68.30;;;;;;5047860;28;2078;-68
2022/11/09 12:44:47;;;;;;;;;;;19.90;69.20;;;;;;5062643;28;1900;-68
2022/11/09 12:47:14;;;;;;;;;;;19.90;68.60;;;;;;5061198;28;1445;-68
2022/11/09 12:49:41;;;;;;;;;;;20.00;68.70;;;;;;5049591;28;1418;-68
2022/11/09 12:52:06;;;;;;;;;;;20.00;68.80;;;;;;5052763;28;864;-68
2022/11/09 12:54:33;;;;;;;;;;;20.00;69.70;;;;;;5052138;28;929;-68
2022/11/09 12:57:00;;;;;;;;;;;20.00;69.00;;;;;;5062408;28;1381;-68
2022/11/09 12:59:25;;;;;;;;;;;20.00;69.20;;;;;;5046705;28;1902;-68
2022/11/09 13:01:52;;;;;;;;;;;20.00;69.20;;;;;;5062889;28;822;-68
2022/11/09 13:04:18;;;;;;;;;;;20.00;69.30;;;;;;5049109;28;1002;-68
2022/11/09 13:07:03;;;;;;;;;;;20.00;69.40;;;;;;5062169;28;1281;-68
2022/11/09 13:09:29;;;;;;;;;;;20.00;69.50;;;;;;5062673;28;1031;-68
2022/11/09 13:11:55;;;;;;;;;;;20.00;69.60;;;;;;5064579;28;1018;-68
2022/11/09 13:14:20;;;;;;;;;;;20.00;69.40;;;;;;5050736;28;788;-68
2022/11/09 13:16:49;;;;;;;;;;;20.00;69.50;;;;;;5041813;28;1382;-68
2022/11/09 13:19:33;;;;;;;;;;;20.00;69.60;;;;;;5050314;28;1918;-68
2022/11/09 13:22:19;;;;;;;;;;;20.00;69.60;;;;;;5067199;28;798;-68
2022/11/09 13:24:48;;;;;;;;;;;20.00;69.90;;;;;;5032938;28;1286;-68
2022/11/09 13:27:26;;;;;;;;;;;20.00;69.80;;;;;;5046280;28;1259;-68
2022/11/09 13:29:54;;;;;;;;;;;20.00;69.40;;;;;;5064138;28;1037;-68
2022/11/09 13:32:20;;;;;;;;;;;20.00;69.70;;;;;;5050319;28;1161;-67
2022/11/09 13:34:54;;;;;;;;;;;20.00;69.60;;;;;;5064927;28;800;-68
2022/11/09 13:37:38;;;;;;;;;;;20.00;69.30;;;;;;5065240;28;1328;-69
2022/11/09 13:40:22;;;;;;;;;;;20.00;69.20;;;;;;5063872;28;1300;-69
2022/11/09 13:42:55;;;;;;;;;;;20.00;69.50;;;;;;5060946;28;884;-68
2022/11/09 13:45:28;;;;;;;;;;;20.00;69.60;;;;;;5048968;28;1250;-70
2022/11/09 13:47:53;;;;;;;;;;;20.00;69.30;;;;;;5051261;28;1352;-67
2022/11/09 13:50:20;;;;;;;;;;;20.00;69.20;;;;;;5065975;28;1282;-69
2022/11/09 13:52:50;;;;;;;;;;;20.00;69.10;;;;;;5062126;28;845;-69
2022/11/09 13:55:22;;;;;;;;;;;20.00;69.10;;;;;;5050819;28;1512;-69
2022/11/09 13:57:47;;;;;;;;;;;20.00;69.50;;;;;;5050154;28;1894;-68
2022/11/09 14:00:18;;;;;;;;;;;20.00;69.60;;;;;;5061464;28;842;-70
2022/11/09 14:02:55;;;;;;;;;;;20.00;69.40;;;;;;5062426;28;1366;-68
2022/11/09 14:05:24;;;;;;;;;;;20.00;69.30;;;;;;5044978;28;896;-69
2022/11/09 14:07:51;;;;;;;;;;;20.00;69.20;;;;;;5046792;28;1555;-69
2022/11/09 14:10:20;;;;;;;;;;;20.00;69.30;;;;;;5050618;28;804;-69
2022/11/09 14:12:49;;;;;;;;;;;20.00;69.30;;;;;;5050628;28;888;-68
2022/11/09 14:15:14;;;;;;;;;;;20.00;69.40;;;;;;5046023;28;804;-69
2022/11/09 14:17:43;;;;;;;;;;;20.00;69.50;;;;;;5062626;28;1905;-69
2022/11/09 14:20:15;;;;;;;;;;;19.90;69.40;;;;;;5050341;28;1321;-70
2022/11/09 14:22:40;;;;;;;;;;;19.90;69.40;;;;;;5064327;28;1417;-70
2022/11/09 14:25:12;;;;;;;;;;;19.90;69.50;;;;;;5048526;28;1430;-69
2022/11/09 14:27:44;;;;;;;;;;;19.90;69.50;;;;;;5067014;28;1314;-69
2022/11/09 14:30:14;;;;;;;;;;;19.90;69.50;;;;;;5047582;28;1363;-70
2022/11/09 14:32:40;;;;;;;;;;;19.90;69.60;;;;;;5048661;28;2162;-69
2022/11/09 14:35:25;;;;;;;;;;;19.90;69.60;;;;;;5050755;28;1621;-70
2022/11/09 14:37:51;;;;;;;;;;;19.90;69.60;;;;;;5063880;28;1969;-70
2022/11/09 14:40:22;;;;;;;;;;;19.90;69.60;;;;;;5043024;28;1402;-69
2022/11/09 14:43:11;;;;;;;;;;;19.90;69.70;;;;;;5042086;28;1275;-68